sensor_id;sensor_type;location;lat;lon;timestamp;P1;durP1;ratioP1;P2;durP2;ratioP2
33403;SDS011;19751;40.274;18.268;2024-03-25T00:00:35;11.63;;;3.08;;
33403;SDS011;19751;40.274;18.268;2024-03-25T00:03:01;11.02;;;3.20;;
33403;SDS011;19751;40.274;18.268;2024-03-25T00:05:26;8.27;;;3.70;;
33403;SDS011;19751;40.274;18.268;2024-03-25T00:07:52;14.55;;;4.15;;
33403;SDS011;19751;40.274;18.268;2024-03-25T00:10:17;11.38;;;3.80;;
33403;SDS011;19751;40.274;18.268;2024-03-25T00:12:45;7.90;;;2.88;;
33403;SDS011;19751;40.274;18.268;2024-03-25T00:15:12;11.10;;;3.70;;
33403;SDS011;19751;40.274;18.268;2024-03-25T00:17:37;12.88;;;3.88;;
33403;SDS011;19751;40.274;18.268;2024-03-25T00:20:03;10.98;;;3.80;;
33403;SDS011;19751;40.274;18.268;2024-03-25T00:22:31;11.07;;;3.67;;
33403;SDS011;19751;40.274;18.268;2024-03-25T00:24:56;9.45;;;2.88;;
33403;SDS011;19751;40.274;18.268;2024-03-25T00:27:21;13.15;;;3.95;;
33403;SDS011;19751;40.274;18.268;2024-03-25T00:29:47;9.48;;;3.33;;
33403;SDS011;19751;40.274;18.268;2024-03-25T00:32:13;12.32;;;4.07;;
33403;SDS011;19751;40.274;18.268;2024-03-25T00:34:40;8.60;;;3.88;;
33403;SDS011;19751;40.274;18.268;2024-03-25T00:37:05;16.63;;;3.90;;
33403;SDS011;19751;40.274;18.268;2024-03-25T00:39:30;12.80;;;5.03;;
33403;SDS011;19751;40.274;18.268;2024-03-25T00:41:57;11.93;;;4.97;;
33403;SDS011;19751;40.274;18.268;2024-03-25T00:44:23;8.77;;;3.63;;
33403;SDS011;19751;40.274;18.268;2024-03-25T00:46:49;12.13;;;3.83;;
33403;SDS011;19751;40.274;18.268;2024-03-25T00:49:15;10.88;;;3.28;;
33403;SDS011;19751;40.274;18.268;2024-03-25T00:51:40;13.40;;;4.57;;
33403;SDS011;19751;40.274;18.268;2024-03-25T00:54:06;16.00;;;3.78;;
33403;SDS011;19751;40.274;18.268;2024-03-25T00:56:32;9.13;;;2.88;;
33403;SDS011;19751;40.274;18.268;2024-03-25T00:58:57;6.20;;;2.65;;
33403;SDS011;19751;40.274;18.268;2024-03-25T01:01:27;7.50;;;3.47;;
33403;SDS011;19751;40.274;18.268;2024-03-25T01:03:56;10.93;;;2.42;;
33403;SDS011;19751;40.274;18.268;2024-03-25T01:06:22;17.92;;;4.00;;
33403;SDS011;19751;40.274;18.268;2024-03-25T01:08:47;8.57;;;4.25;;
33403;SDS011;19751;40.274;18.268;2024-03-25T01:11:13;10.90;;;4.75;;
33403;SDS011;19751;40.274;18.268;2024-03-25T01:13:38;12.20;;;3.72;;
33403;SDS011;19751;40.274;18.268;2024-03-25T01:16:06;9.00;;;2.83;;
33403;SDS011;19751;40.274;18.268;2024-03-25T01:18:32;10.63;;;3.38;;
33403;SDS011;19751;40.274;18.268;2024-03-25T01:20:58;6.22;;;2.63;;
33403;SDS011;19751;40.274;18.268;2024-03-25T01:23:23;10.43;;;2.90;;
33403;SDS011;19751;40.274;18.268;2024-03-25T01:25:48;9.00;;;2.83;;
33403;SDS011;19751;40.274;18.268;2024-03-25T01:28:14;17.70;;;2.83;;
33403;SDS011;19751;40.274;18.268;2024-03-25T01:30:39;9.80;;;3.30;;
33403;SDS011;19751;40.274;18.268;2024-03-25T01:33:05;14.82;;;2.47;;
33403;SDS011;19751;40.274;18.268;2024-03-25T01:35:31;12.27;;;3.97;;
33403;SDS011;19751;40.274;18.268;2024-03-25T01:37:56;12.02;;;3.28;;
33403;SDS011;19751;40.274;18.268;2024-03-25T01:40:22;12.95;;;3.38;;
33403;SDS011;19751;40.274;18.268;2024-03-25T01:42:57;6.80;;;2.50;;
33403;SDS011;19751;40.274;18.268;2024-03-25T01:45:24;11.00;;;3.35;;
33403;SDS011;19751;40.274;18.268;2024-03-25T01:47:50;8.35;;;3.50;;
33403;SDS011;19751;40.274;18.268;2024-03-25T01:50:16;7.28;;;2.50;;
33403;SDS011;19751;40.274;18.268;2024-03-25T01:52:42;12.32;;;3.17;;
33403;SDS011;19751;40.274;18.268;2024-03-25T01:55:08;16.25;;;3.05;;
33403;SDS011;19751;40.274;18.268;2024-03-25T01:57:41;8.32;;;2.63;;
33403;SDS011;19751;40.274;18.268;2024-03-25T02:00:08;10.88;;;3.58;;
33403;SDS011;19751;40.274;18.268;2024-03-25T02:02:34;12.13;;;3.13;;
33403;SDS011;19751;40.274;18.268;2024-03-25T02:05:02;8.63;;;2.92;;
33403;SDS011;19751;40.274;18.268;2024-03-25T02:07:28;15.77;;;5.60;;
33403;SDS011;19751;40.274;18.268;2024-03-25T02:09:55;14.30;;;3.45;;
33403;SDS011;19751;40.274;18.268;2024-03-25T02:12:21;10.07;;;3.08;;
33403;SDS011;19751;40.274;18.268;2024-03-25T02:14:47;10.77;;;3.25;;
33403;SDS011;19751;40.274;18.268;2024-03-25T02:17:13;13.68;;;2.85;;
33403;SDS011;19751;40.274;18.268;2024-03-25T02:19:38;13.25;;;4.05;;
33403;SDS011;19751;40.274;18.268;2024-03-25T02:22:06;13.48;;;3.20;;
33403;SDS011;19751;40.274;18.268;2024-03-25T02:24:31;13.10;;;3.20;;
33403;SDS011;19751;40.274;18.268;2024-03-25T02:26:58;11.52;;;3.33;;
33403;SDS011;19751;40.274;18.268;2024-03-25T02:29:32;9.73;;;2.20;;
33403;SDS011;19751;40.274;18.268;2024-03-25T02:32:00;12.57;;;4.32;;
33403;SDS011;19751;40.274;18.268;2024-03-25T02:34:26;13.50;;;2.95;;
33403;SDS011;19751;40.274;18.268;2024-03-25T02:36:51;13.98;;;4.75;;
33403;SDS011;19751;40.274;18.268;2024-03-25T02:39:17;9.77;;;2.53;;
33403;SDS011;19751;40.274;18.268;2024-03-25T02:41:44;12.63;;;2.83;;
33403;SDS011;19751;40.274;18.268;2024-03-25T02:44:09;10.65;;;3.17;;
33403;SDS011;19751;40.274;18.268;2024-03-25T02:46:35;11.38;;;2.70;;
33403;SDS011;19751;40.274;18.268;2024-03-25T02:49:00;8.95;;;3.92;;
33403;SDS011;19751;40.274;18.268;2024-03-25T02:51:26;11.15;;;2.85;;
33403;SDS011;19751;40.274;18.268;2024-03-25T02:53:51;17.38;;;2.70;;
33403;SDS011;19751;40.274;18.268;2024-03-25T02:56:16;9.32;;;2.80;;
33403;SDS011;19751;40.274;18.268;2024-03-25T02:58:42;10.98;;;3.10;;
33403;SDS011;19751;40.274;18.268;2024-03-25T03:01:07;9.38;;;3.15;;
33403;SDS011;19751;40.274;18.268;2024-03-25T03:03:33;7.72;;;1.90;;
33403;SDS011;19751;40.274;18.268;2024-03-25T03:05:58;11.60;;;3.00;;
33403;SDS011;19751;40.274;18.268;2024-03-25T03:08:23;7.30;;;2.60;;
33403;SDS011;19751;40.274;18.268;2024-03-25T03:10:49;8.48;;;2.53;;
33403;SDS011;19751;40.274;18.268;2024-03-25T03:13:14;11.35;;;3.08;;
33403;SDS011;19751;40.274;18.268;2024-03-25T03:15:46;8.02;;;3.20;;
33403;SDS011;19751;40.274;18.268;2024-03-25T03:18:12;6.78;;;2.30;;
33403;SDS011;19751;40.274;18.268;2024-03-25T03:20:38;9.48;;;2.60;;
33403;SDS011;19751;40.274;18.268;2024-03-25T03:23:03;6.85;;;1.83;;
33403;SDS011;19751;40.274;18.268;2024-03-25T03:25:29;8.23;;;1.98;;
33403;SDS011;19751;40.274;18.268;2024-03-25T03:27:56;7.40;;;1.83;;
33403;SDS011;19751;40.274;18.268;2024-03-25T03:30:21;5.97;;;2.08;;
33403;SDS011;19751;40.274;18.268;2024-03-25T03:32:47;8.73;;;2.17;;
33403;SDS011;19751;40.274;18.268;2024-03-25T03:35:12;10.00;;;2.28;;
33403;SDS011;19751;40.274;18.268;2024-03-25T03:37:38;11.38;;;2.50;;
33403;SDS011;19751;40.274;18.268;2024-03-25T03:40:03;7.68;;;2.22;;
33403;SDS011;19751;40.274;18.268;2024-03-25T03:42:32;5.55;;;1.92;;
33403;SDS011;19751;40.274;18.268;2024-03-25T03:44:58;7.90;;;1.50;;
33403;SDS011;19751;40.274;18.268;2024-03-25T03:47:23;5.72;;;1.83;;
33403;SDS011;19751;40.274;18.268;2024-03-25T03:49:49;10.02;;;2.35;;
33403;SDS011;19751;40.274;18.268;2024-03-25T03:52:14;7.03;;;2.72;;
33403;SDS011;19751;40.274;18.268;2024-03-25T03:54:39;8.55;;;2.42;;
33403;SDS011;19751;40.274;18.268;2024-03-25T03:57:05;10.27;;;1.95;;
33403;SDS011;19751;40.274;18.268;2024-03-25T03:59:31;10.77;;;2.40;;
33403;SDS011;19751;40.274;18.268;2024-03-25T04:01:56;5.93;;;1.85;;
33403;SDS011;19751;40.274;18.268;2024-03-25T04:04:22;7.35;;;2.45;;
33403;SDS011;19751;40.274;18.268;2024-03-25T04:06:47;7.35;;;2.20;;
33403;SDS011;19751;40.274;18.268;2024-03-25T04:09:13;11.95;;;3.28;;
33403;SDS011;19751;40.274;18.268;2024-03-25T04:11:39;7.75;;;2.47;;
33403;SDS011;19751;40.274;18.268;2024-03-25T04:14:04;9.38;;;2.22;;
33403;SDS011;19751;40.274;18.268;2024-03-25T04:16:30;9.32;;;2.25;;
33403;SDS011;19751;40.274;18.268;2024-03-25T04:18:56;5.20;;;1.40;;
33403;SDS011;19751;40.274;18.268;2024-03-25T04:21:22;7.28;;;2.17;;
33403;SDS011;19751;40.274;18.268;2024-03-25T04:23:48;7.93;;;3.08;;
33403;SDS011;19751;40.274;18.268;2024-03-25T04:26:14;6.97;;;1.55;;
33403;SDS011;19751;40.274;18.268;2024-03-25T04:28:40;7.70;;;1.63;;
33403;SDS011;19751;40.274;18.268;2024-03-25T04:31:07;7.68;;;2.25;;
33403;SDS011;19751;40.274;18.268;2024-03-25T04:33:33;9.23;;;3.63;;
33403;SDS011;19751;40.274;18.268;2024-03-25T04:36:00;5.32;;;2.70;;
33403;SDS011;19751;40.274;18.268;2024-03-25T04:38:25;9.23;;;1.65;;
33403;SDS011;19751;40.274;18.268;2024-03-25T04:40:51;7.85;;;2.33;;
33403;SDS011;19751;40.274;18.268;2024-03-25T04:43:16;9.18;;;2.03;;
33403;SDS011;19751;40.274;18.268;2024-03-25T04:45:42;7.90;;;2.05;;
33403;SDS011;19751;40.274;18.268;2024-03-25T04:48:07;7.40;;;2.55;;
33403;SDS011;19751;40.274;18.268;2024-03-25T04:50:33;6.38;;;2.05;;
33403;SDS011;19751;40.274;18.268;2024-03-25T04:52:59;7.30;;;2.25;;
33403;SDS011;19751;40.274;18.268;2024-03-25T04:55:25;8.93;;;2.20;;
33403;SDS011;19751;40.274;18.268;2024-03-25T04:57:50;7.70;;;3.45;;
33403;SDS011;19751;40.274;18.268;2024-03-25T05:00:16;4.22;;;1.45;;
33403;SDS011;19751;40.274;18.268;2024-03-25T05:02:42;7.75;;;1.98;;
33403;SDS011;19751;40.274;18.268;2024-03-25T05:05:07;8.02;;;1.75;;
33403;SDS011;19751;40.274;18.268;2024-03-25T05:07:33;8.73;;;1.88;;
33403;SDS011;19751;40.274;18.268;2024-03-25T05:09:59;8.55;;;1.70;;
33403;SDS011;19751;40.274;18.268;2024-03-25T05:12:25;10.13;;;2.22;;
33403;SDS011;19751;40.274;18.268;2024-03-25T05:14:54;7.55;;;1.58;;
33403;SDS011;19751;40.274;18.268;2024-03-25T05:17:20;6.85;;;1.80;;
33403;SDS011;19751;40.274;18.268;2024-03-25T05:19:46;15.98;;;3.65;;
33403;SDS011;19751;40.274;18.268;2024-03-25T05:22:11;10.65;;;3.05;;
33403;SDS011;19751;40.274;18.268;2024-03-25T05:24:37;13.18;;;3.10;;
33403;SDS011;19751;40.274;18.268;2024-03-25T05:27:02;10.10;;;2.80;;
33403;SDS011;19751;40.274;18.268;2024-03-25T05:29:28;9.45;;;3.08;;
33403;SDS011;19751;40.274;18.268;2024-03-25T05:32:02;10.38;;;3.15;;
33403;SDS011;19751;40.274;18.268;2024-03-25T05:34:28;8.73;;;3.28;;
33403;SDS011;19751;40.274;18.268;2024-03-25T05:36:54;7.93;;;2.38;;
33403;SDS011;19751;40.274;18.268;2024-03-25T05:39:20;9.27;;;1.98;;
33403;SDS011;19751;40.274;18.268;2024-03-25T05:41:46;6.97;;;2.20;;
33403;SDS011;19751;40.274;18.268;2024-03-25T05:44:12;6.57;;;2.42;;
33403;SDS011;19751;40.274;18.268;2024-03-25T05:46:38;5.32;;;2.30;;
33403;SDS011;19751;40.274;18.268;2024-03-25T05:49:04;12.48;;;3.88;;
33403;SDS011;19751;40.274;18.268;2024-03-25T05:51:30;9.25;;;3.05;;
33403;SDS011;19751;40.274;18.268;2024-03-25T05:53:56;12.38;;;3.00;;
33403;SDS011;19751;40.274;18.268;2024-03-25T05:56:21;10.38;;;3.28;;
33403;SDS011;19751;40.274;18.268;2024-03-25T05:58:47;65.45;;;31.08;;
33403;SDS011;19751;40.274;18.268;2024-03-25T06:01:12;49.42;;;24.80;;
33403;SDS011;19751;40.274;18.268;2024-03-25T06:03:38;76.60;;;42.25;;
33403;SDS011;19751;40.274;18.268;2024-03-25T06:06:04;55.83;;;34.13;;
33403;SDS011;19751;40.274;18.268;2024-03-25T06:08:29;35.00;;;20.80;;
33403;SDS011;19751;40.274;18.268;2024-03-25T06:10:59;16.45;;;10.02;;
33403;SDS011;19751;40.274;18.268;2024-03-25T06:13:25;12.20;;;4.45;;
33403;SDS011;19751;40.274;18.268;2024-03-25T06:15:51;7.65;;;3.25;;
33403;SDS011;19751;40.274;18.268;2024-03-25T06:18:16;12.00;;;2.85;;
33403;SDS011;19751;40.274;18.268;2024-03-25T06:20:42;6.22;;;1.75;;
33403;SDS011;19751;40.274;18.268;2024-03-25T06:23:07;9.43;;;1.40;;
33403;SDS011;19751;40.274;18.268;2024-03-25T06:25:33;5.32;;;1.80;;
33403;SDS011;19751;40.274;18.268;2024-03-25T06:28:00;4.43;;;1.65;;
33403;SDS011;19751;40.274;18.268;2024-03-25T06:30:26;5.15;;;1.70;;
33403;SDS011;19751;40.274;18.268;2024-03-25T06:33:10;4.63;;;1.33;;
33403;SDS011;19751;40.274;18.268;2024-03-25T06:35:54;9.32;;;2.13;;
33403;SDS011;19751;40.274;18.268;2024-03-25T06:38:20;4.95;;;1.40;;
33403;SDS011;19751;40.274;18.268;2024-03-25T06:40:47;3.88;;;1.20;;
33403;SDS011;19751;40.274;18.268;2024-03-25T06:43:12;5.18;;;1.67;;
33403;SDS011;19751;40.274;18.268;2024-03-25T06:45:38;10.25;;;1.90;;
33403;SDS011;19751;40.274;18.268;2024-03-25T06:48:04;6.05;;;1.90;;
33403;SDS011;19751;40.274;18.268;2024-03-25T06:50:30;7.80;;;1.52;;
33403;SDS011;19751;40.274;18.268;2024-03-25T06:52:55;8.10;;;1.85;;
33403;SDS011;19751;40.274;18.268;2024-03-25T06:55:20;8.15;;;2.25;;
33403;SDS011;19751;40.274;18.268;2024-03-25T06:57:50;4.35;;;1.52;;
33403;SDS011;19751;40.274;18.268;2024-03-25T07:00:15;6.88;;;1.95;;
33403;SDS011;19751;40.274;18.268;2024-03-25T07:02:41;5.53;;;1.60;;
33403;SDS011;19751;40.274;18.268;2024-03-25T07:05:07;8.38;;;2.03;;
33403;SDS011;19751;40.274;18.268;2024-03-25T07:07:33;4.63;;;1.77;;
33403;SDS011;19751;40.274;18.268;2024-03-25T07:10:01;6.20;;;2.40;;
33403;SDS011;19751;40.274;18.268;2024-03-25T07:12:27;7.30;;;1.40;;
33403;SDS011;19751;40.274;18.268;2024-03-25T07:14:53;4.43;;;1.75;;
33403;SDS011;19751;40.274;18.268;2024-03-25T07:17:19;8.70;;;2.58;;
33403;SDS011;19751;40.274;18.268;2024-03-25T07:19:46;5.80;;;1.63;;
33403;SDS011;19751;40.274;18.268;2024-03-25T07:22:12;8.32;;;1.58;;
33403;SDS011;19751;40.274;18.268;2024-03-25T07:24:37;5.00;;;1.40;;
33403;SDS011;19751;40.274;18.268;2024-03-25T07:27:03;6.80;;;2.08;;
33403;SDS011;19751;40.274;18.268;2024-03-25T07:29:28;3.50;;;1.20;;
33403;SDS011;19751;40.274;18.268;2024-03-25T07:31:54;6.72;;;1.80;;
33403;SDS011;19751;40.274;18.268;2024-03-25T07:34:19;4.97;;;1.60;;
33403;SDS011;19751;40.274;18.268;2024-03-25T07:36:44;3.35;;;1.20;;
33403;SDS011;19751;40.274;18.268;2024-03-25T07:39:10;2.65;;;1.58;;
33403;SDS011;19751;40.274;18.268;2024-03-25T07:41:36;5.28;;;1.70;;
33403;SDS011;19751;40.274;18.268;2024-03-25T07:44:02;3.63;;;1.33;;
33403;SDS011;19751;40.274;18.268;2024-03-25T07:46:27;7.38;;;1.90;;
33403;SDS011;19751;40.274;18.268;2024-03-25T07:48:53;5.93;;;1.40;;
33403;SDS011;19751;40.274;18.268;2024-03-25T07:51:18;6.22;;;1.35;;
33403;SDS011;19751;40.274;18.268;2024-03-25T07:53:43;4.43;;;1.35;;
33403;SDS011;19751;40.274;18.268;2024-03-25T07:56:09;3.20;;;1.08;;
33403;SDS011;19751;40.274;18.268;2024-03-25T07:58:34;2.45;;;1.00;;
33403;SDS011;19751;40.274;18.268;2024-03-25T08:01:00;4.82;;;1.10;;
33403;SDS011;19751;40.274;18.268;2024-03-25T08:03:25;3.17;;;1.25;;
33403;SDS011;19751;40.274;18.268;2024-03-25T08:05:51;4.55;;;1.48;;
33403;SDS011;19751;40.274;18.268;2024-03-25T08:08:16;3.75;;;1.25;;
33403;SDS011;19751;40.274;18.268;2024-03-25T08:10:42;2.08;;;0.95;;
33403;SDS011;19751;40.274;18.268;2024-03-25T08:13:07;6.35;;;1.23;;
33403;SDS011;19751;40.274;18.268;2024-03-25T08:15:32;8.13;;;1.30;;
33403;SDS011;19751;40.274;18.268;2024-03-25T08:17:58;5.47;;;1.27;;
33403;SDS011;19751;40.274;18.268;2024-03-25T08:20:23;6.82;;;1.63;;
33403;SDS011;19751;40.274;18.268;2024-03-25T08:22:49;11.05;;;2.45;;
33403;SDS011;19751;40.274;18.268;2024-03-25T08:25:14;5.60;;;1.90;;
33403;SDS011;19751;40.274;18.268;2024-03-25T08:27:40;6.75;;;1.58;;
33403;SDS011;19751;40.274;18.268;2024-03-25T08:30:05;2.90;;;1.15;;
33403;SDS011;19751;40.274;18.268;2024-03-25T08:32:31;1.55;;;1.10;;
33403;SDS011;19751;40.274;18.268;2024-03-25T08:34:57;6.55;;;1.45;;
33403;SDS011;19751;40.274;18.268;2024-03-25T08:37:23;4.95;;;2.22;;
33403;SDS011;19751;40.274;18.268;2024-03-25T08:39:49;27.77;;;3.60;;
33403;SDS011;19751;40.274;18.268;2024-03-25T08:42:14;10.32;;;2.30;;
33403;SDS011;19751;40.274;18.268;2024-03-25T08:44:39;8.02;;;1.98;;
33403;SDS011;19751;40.274;18.268;2024-03-25T08:47:05;2.38;;;1.23;;
33403;SDS011;19751;40.274;18.268;2024-03-25T08:49:30;5.57;;;1.40;;
33403;SDS011;19751;40.274;18.268;2024-03-25T08:51:56;4.35;;;1.45;;
33403;SDS011;19751;40.274;18.268;2024-03-25T08:54:21;3.97;;;1.65;;
33403;SDS011;19751;40.274;18.268;2024-03-25T08:56:47;4.22;;;1.33;;
33403;SDS011;19751;40.274;18.268;2024-03-25T08:59:12;6.57;;;1.40;;
33403;SDS011;19751;40.274;18.268;2024-03-25T09:01:38;6.57;;;1.98;;
33403;SDS011;19751;40.274;18.268;2024-03-25T09:04:03;5.10;;;1.83;;
33403;SDS011;19751;40.274;18.268;2024-03-25T09:06:29;3.45;;;1.27;;
33403;SDS011;19751;40.274;18.268;2024-03-25T09:08:54;4.80;;;1.55;;
33403;SDS011;19751;40.274;18.268;2024-03-25T09:11:38;6.72;;;2.47;;
33403;SDS011;19751;40.274;18.268;2024-03-25T09:14:04;6.57;;;1.00;;
33403;SDS011;19751;40.274;18.268;2024-03-25T09:16:31;3.38;;;1.52;;
33403;SDS011;19751;40.274;18.268;2024-03-25T09:18:56;4.60;;;1.08;;
33403;SDS011;19751;40.274;18.268;2024-03-25T09:21:22;2.53;;;1.00;;
33403;SDS011;19751;40.274;18.268;2024-03-25T09:23:49;8.30;;;1.38;;
33403;SDS011;19751;40.274;18.268;2024-03-25T09:26:15;2.78;;;1.15;;
33403;SDS011;19751;40.274;18.268;2024-03-25T09:28:40;5.55;;;1.73;;
33403;SDS011;19751;40.274;18.268;2024-03-25T09:31:06;3.45;;;1.40;;
33403;SDS011;19751;40.274;18.268;2024-03-25T09:33:31;2.88;;;1.10;;
33403;SDS011;19751;40.274;18.268;2024-03-25T09:35:58;5.00;;;1.35;;
33403;SDS011;19751;40.274;18.268;2024-03-25T09:38:23;4.05;;;1.27;;
33403;SDS011;19751;40.274;18.268;2024-03-25T09:40:50;10.07;;;1.80;;
33403;SDS011;19751;40.274;18.268;2024-03-25T09:43:25;4.85;;;1.50;;
33403;SDS011;19751;40.274;18.268;2024-03-25T09:45:57;4.60;;;1.00;;
33403;SDS011;19751;40.274;18.268;2024-03-25T09:48:24;2.05;;;1.27;;
33403;SDS011;19751;40.274;18.268;2024-03-25T09:50:49;7.07;;;1.63;;
33403;SDS011;19751;40.274;18.268;2024-03-25T09:53:17;2.63;;;0.85;;
33403;SDS011;19751;40.274;18.268;2024-03-25T09:55:42;5.15;;;1.38;;
33403;SDS011;19751;40.274;18.268;2024-03-25T09:58:08;2.17;;;1.23;;
33403;SDS011;19751;40.274;18.268;2024-03-25T10:00:34;8.32;;;1.30;;
33403;SDS011;19751;40.274;18.268;2024-03-25T10:03:00;3.28;;;1.20;;
33403;SDS011;19751;40.274;18.268;2024-03-25T10:05:25;3.10;;;1.65;;
33403;SDS011;19751;40.274;18.268;2024-03-25T10:07:51;3.35;;;1.40;;
33403;SDS011;19751;40.274;18.268;2024-03-25T10:10:19;3.78;;;1.70;;
33403;SDS011;19751;40.274;18.268;2024-03-25T10:12:45;2.90;;;1.20;;
33403;SDS011;19751;40.274;18.268;2024-03-25T10:15:20;4.75;;;1.08;;
33403;SDS011;19751;40.274;18.268;2024-03-25T10:17:48;6.90;;;1.17;;
33403;SDS011;19751;40.274;18.268;2024-03-25T10:20:14;4.03;;;1.50;;
33403;SDS011;19751;40.274;18.268;2024-03-25T10:22:40;5.07;;;1.42;;
33403;SDS011;19751;40.274;18.268;2024-03-25T10:25:28;7.03;;;1.00;;
33403;SDS011;19751;40.274;18.268;2024-03-25T10:27:57;3.15;;;0.98;;
33403;SDS011;19751;40.274;18.268;2024-03-25T10:30:25;6.55;;;1.30;;
33403;SDS011;19751;40.274;18.268;2024-03-25T10:32:57;3.25;;;0.77;;
33403;SDS011;19751;40.274;18.268;2024-03-25T10:35:25;5.47;;;1.25;;
33403;SDS011;19751;40.274;18.268;2024-03-25T10:37:53;4.45;;;1.13;;
33403;SDS011;19751;40.274;18.268;2024-03-25T10:40:28;2.95;;;1.13;;
33403;SDS011;19751;40.274;18.268;2024-03-25T10:43:02;5.85;;;2.40;;
33403;SDS011;19751;40.274;18.268;2024-03-25T10:45:29;4.75;;;2.25;;
33403;SDS011;19751;40.274;18.268;2024-03-25T10:47:58;2.17;;;1.00;;
33403;SDS011;19751;40.274;18.268;2024-03-25T10:50:28;5.05;;;1.50;;
33403;SDS011;19751;40.274;18.268;2024-03-25T10:52:54;2.55;;;1.13;;
33403;SDS011;19751;40.274;18.268;2024-03-25T10:55:22;4.63;;;1.50;;
33403;SDS011;19751;40.274;18.268;2024-03-25T10:57:49;3.15;;;1.02;;
33403;SDS011;19751;40.274;18.268;2024-03-25T11:00:17;3.47;;;1.00;;
33403;SDS011;19751;40.274;18.268;2024-03-25T11:02:44;7.13;;;1.30;;
33403;SDS011;19751;40.274;18.268;2024-03-25T11:05:10;3.22;;;1.13;;
33403;SDS011;19751;40.274;18.268;2024-03-25T11:07:37;3.72;;;1.35;;
33403;SDS011;19751;40.274;18.268;2024-03-25T11:10:05;3.45;;;1.35;;
33403;SDS011;19751;40.274;18.268;2024-03-25T11:12:34;3.45;;;2.15;;
33403;SDS011;19751;40.274;18.268;2024-03-25T11:15:02;4.53;;;1.05;;
33403;SDS011;19751;40.274;18.268;2024-03-25T11:17:29;5.75;;;1.13;;
33403;SDS011;19751;40.274;18.268;2024-03-25T11:20:05;2.38;;;0.90;;
33403;SDS011;19751;40.274;18.268;2024-03-25T11:22:32;5.90;;;1.45;;
33403;SDS011;19751;40.274;18.268;2024-03-25T11:24:57;9.13;;;2.80;;
33403;SDS011;19751;40.274;18.268;2024-03-25T11:27:31;2.58;;;1.13;;
33403;SDS011;19751;40.274;18.268;2024-03-25T11:29:57;4.40;;;0.75;;
33403;SDS011;19751;40.274;18.268;2024-03-25T11:32:22;6.00;;;1.13;;
33403;SDS011;19751;40.274;18.268;2024-03-25T11:34:50;7.40;;;1.08;;
33403;SDS011;19751;40.274;18.268;2024-03-25T11:37:18;8.38;;;1.13;;
33403;SDS011;19751;40.274;18.268;2024-03-25T11:39:43;8.20;;;1.00;;
33403;SDS011;19751;40.274;18.268;2024-03-25T11:42:09;4.22;;;1.00;;
33403;SDS011;19751;40.274;18.268;2024-03-25T11:44:35;6.65;;;1.17;;
33403;SDS011;19751;40.274;18.268;2024-03-25T11:47:03;3.92;;;0.85;;
33403;SDS011;19751;40.274;18.268;2024-03-25T11:49:30;1.65;;;0.60;;
33403;SDS011;19751;40.274;18.268;2024-03-25T11:51:58;5.38;;;1.00;;
33403;SDS011;19751;40.274;18.268;2024-03-25T11:54:26;4.43;;;0.80;;
33403;SDS011;19751;40.274;18.268;2024-03-25T11:56:54;2.95;;;0.90;;
33403;SDS011;19751;40.274;18.268;2024-03-25T11:59:19;2.28;;;0.70;;
33403;SDS011;19751;40.274;18.268;2024-03-25T12:01:45;3.88;;;1.38;;
33403;SDS011;19751;40.274;18.268;2024-03-25T12:04:11;7.22;;;2.33;;
33403;SDS011;19751;40.274;18.268;2024-03-25T12:06:43;2.53;;;1.50;;
33403;SDS011;19751;40.274;18.268;2024-03-25T12:09:10;2.85;;;0.80;;
33403;SDS011;19751;40.274;18.268;2024-03-25T12:11:55;6.22;;;1.08;;
33403;SDS011;19751;40.274;18.268;2024-03-25T12:14:21;2.25;;;1.23;;
33403;SDS011;19751;40.274;18.268;2024-03-25T12:16:48;4.28;;;1.02;;
33403;SDS011;19751;40.274;18.268;2024-03-25T12:19:15;4.13;;;0.95;;
33403;SDS011;19751;40.274;18.268;2024-03-25T12:21:43;2.80;;;0.90;;
33403;SDS011;19751;40.274;18.268;2024-03-25T12:24:08;1.30;;;0.90;;
33403;SDS011;19751;40.274;18.268;2024-03-25T12:26:34;3.22;;;1.30;;
33403;SDS011;19751;40.274;18.268;2024-03-25T12:29:00;3.53;;;0.85;;
33403;SDS011;19751;40.274;18.268;2024-03-25T12:31:27;5.55;;;1.08;;
33403;SDS011;19751;40.274;18.268;2024-03-25T12:33:52;4.95;;;1.73;;
33403;SDS011;19751;40.274;18.268;2024-03-25T12:36:19;4.00;;;0.98;;
33403;SDS011;19751;40.274;18.268;2024-03-25T12:38:53;1.05;;;0.70;;
33403;SDS011;19751;40.274;18.268;2024-03-25T12:41:21;5.50;;;1.00;;
33403;SDS011;19751;40.274;18.268;2024-03-25T12:43:48;3.83;;;1.15;;
33403;SDS011;19751;40.274;18.268;2024-03-25T12:46:15;1.50;;;1.00;;
33403;SDS011;19751;40.274;18.268;2024-03-25T12:48:41;8.23;;;1.30;;
33403;SDS011;19751;40.274;18.268;2024-03-25T12:51:11;3.92;;;1.33;;
33403;SDS011;19751;40.274;18.268;2024-03-25T12:53:38;2.85;;;1.08;;
33403;SDS011;19751;40.274;18.268;2024-03-25T12:56:04;5.10;;;1.38;;
33403;SDS011;19751;40.274;18.268;2024-03-25T12:58:29;4.10;;;1.17;;
33403;SDS011;19751;40.274;18.268;2024-03-25T13:00:54;3.15;;;1.15;;
33403;SDS011;19751;40.274;18.268;2024-03-25T13:03:20;3.03;;;0.80;;
33403;SDS011;19751;40.274;18.268;2024-03-25T13:05:46;5.75;;;0.75;;
33403;SDS011;19751;40.274;18.268;2024-03-25T13:08:12;3.75;;;0.85;;
33403;SDS011;19751;40.274;18.268;2024-03-25T13:10:37;4.15;;;1.00;;
33403;SDS011;19751;40.274;18.268;2024-03-25T13:13:03;5.90;;;1.80;;
33403;SDS011;19751;40.274;18.268;2024-03-25T13:15:30;6.03;;;1.30;;
33403;SDS011;19751;40.274;18.268;2024-03-25T13:17:56;2.00;;;1.25;;
33403;SDS011;19751;40.274;18.268;2024-03-25T13:20:22;3.00;;;1.20;;
33403;SDS011;19751;40.274;18.268;2024-03-25T13:22:48;4.88;;;0.98;;
33403;SDS011;19751;40.274;18.268;2024-03-25T13:25:14;2.58;;;1.52;;
33403;SDS011;19751;40.274;18.268;2024-03-25T13:27:40;3.92;;;1.13;;
33403;SDS011;19751;40.274;18.268;2024-03-25T13:30:05;2.97;;;1.00;;
33403;SDS011;19751;40.274;18.268;2024-03-25T13:32:31;1.98;;;1.25;;
33403;SDS011;19751;40.274;18.268;2024-03-25T13:34:57;3.53;;;2.08;;
33403;SDS011;19751;40.274;18.268;2024-03-25T13:37:22;6.10;;;1.65;;
33403;SDS011;19751;40.274;18.268;2024-03-25T13:39:48;2.15;;;0.82;;
33403;SDS011;19751;40.274;18.268;2024-03-25T13:42:15;1.90;;;0.70;;
33403;SDS011;19751;40.274;18.268;2024-03-25T13:44:41;0.90;;;0.85;;
33403;SDS011;19751;40.274;18.268;2024-03-25T13:47:06;2.97;;;1.00;;
33403;SDS011;19751;40.274;18.268;2024-03-25T13:49:33;3.70;;;0.82;;
33403;SDS011;19751;40.274;18.268;2024-03-25T13:51:59;2.97;;;1.27;;
33403;SDS011;19751;40.274;18.268;2024-03-25T13:54:25;3.42;;;1.15;;
33403;SDS011;19751;40.274;18.268;2024-03-25T13:56:52;2.88;;;0.90;;
33403;SDS011;19751;40.274;18.268;2024-03-25T13:59:17;2.85;;;1.30;;
33403;SDS011;19751;40.274;18.268;2024-03-25T14:01:43;2.90;;;1.00;;
33403;SDS011;19751;40.274;18.268;2024-03-25T14:04:08;1.48;;;1.10;;
33403;SDS011;19751;40.274;18.268;2024-03-25T14:06:34;2.67;;;1.35;;
33403;SDS011;19751;40.274;18.268;2024-03-25T14:09:01;1.25;;;0.82;;
33403;SDS011;19751;40.274;18.268;2024-03-25T14:11:29;1.60;;;0.73;;
33403;SDS011;19751;40.274;18.268;2024-03-25T14:13:55;4.72;;;0.95;;
33403;SDS011;19751;40.274;18.268;2024-03-25T14:16:21;3.33;;;1.20;;
33403;SDS011;19751;40.274;18.268;2024-03-25T14:18:46;3.78;;;1.27;;
33403;SDS011;19751;40.274;18.268;2024-03-25T14:21:12;3.50;;;0.75;;
33403;SDS011;19751;40.274;18.268;2024-03-25T14:23:38;33.15;;;3.53;;
33403;SDS011;19751;40.274;18.268;2024-03-25T14:26:08;18.55;;;2.08;;